KBTM/BTM METAR and TAF weather

Enter ICAO airport designator
Station Type Date Time Source
KBTM METAR 2018/01/19 22:53 UTC NOAA

KBTM 192253Z AUTO 32005KT 10SM SCT070 M02/M08 A2979 RMK AO2 SLP114 T10171083


Station Type Date Time Source
KBTM Decoded METAR 2018/01/19 22:53 UTC NOAA

BERT MOONEY AIRPORT, MT, United States (KBTM) 45-58N 112-30W 1688M
Jan 19, 2018 - 05:53 PM EST / 2018.01.19 2253 UTC
Wind: from the NW (320 degrees) at 6 MPH (5 KT):0
Visibility: 10 mile(s):0
Sky conditions: partly cloudy
Temperature: 28.9 F (-1.7 C)
Windchill: 23 F (-5 C):1
Dew Point: 17.1 F (-8.3 C)
Relative Humidity: 60%
Pressure (altimeter): 29.79 in. Hg (1008 hPa)
ob: KBTM 192253Z AUTO 32005KT 10SM SCT070 M02/M08 A2979 RMK AO2 SLP114 T10171083
cycle: 23

Station Type Date Time Source
KBTM TAF 2018/01/19 18:22 UTC NOAA

TAF KBTM 191720Z 1918/2018 VRB05KT 5SM -SN OVC025
FM191900 32010KT P6SM VCSH BKN025 OVC050
FM200200 VRB04KT P6SM BKN050


Example: see airport list